sensor_id;sensor_type;location;lat;lon;timestamp;P1;durP1;ratioP1;P2;durP2;ratioP2
10481;SDS011;5288;42.334;23.876;2022-10-23T00:01:29;17.10;;;12.90;;
10481;SDS011;5288;42.334;23.876;2022-10-23T00:03:59;19.33;;;14.70;;
10481;SDS011;5288;42.334;23.876;2022-10-23T00:06:28;25.53;;;15.70;;
10481;SDS011;5288;42.334;23.876;2022-10-23T00:08:57;24.27;;;16.47;;
10481;SDS011;5288;42.334;23.876;2022-10-23T00:11:25;21.67;;;14.80;;
10481;SDS011;5288;42.334;23.876;2022-10-23T00:13:55;23.13;;;15.50;;
10481;SDS011;5288;42.334;23.876;2022-10-23T00:16:23;16.97;;;14.33;;
10481;SDS011;5288;42.334;23.876;2022-10-23T00:18:50;24.83;;;17.33;;
10481;SDS011;5288;42.334;23.876;2022-10-23T00:21:19;23.23;;;14.63;;
10481;SDS011;5288;42.334;23.876;2022-10-23T00:23:46;20.70;;;15.17;;
10481;SDS011;5288;42.334;23.876;2022-10-23T00:26:13;19.33;;;14.37;;
10481;SDS011;5288;42.334;23.876;2022-10-23T00:28:41;22.63;;;15.67;;
10481;SDS011;5288;42.334;23.876;2022-10-23T00:31:08;25.60;;;15.97;;
10481;SDS011;5288;42.334;23.876;2022-10-23T00:33:35;17.63;;;13.70;;
10481;SDS011;5288;42.334;23.876;2022-10-23T00:36:03;19.63;;;14.00;;
10481;SDS011;5288;42.334;23.876;2022-10-23T00:38:32;16.40;;;12.83;;
10481;SDS011;5288;42.334;23.876;2022-10-23T00:41:00;17.00;;;12.63;;
10481;SDS011;5288;42.334;23.876;2022-10-23T00:43:28;19.03;;;13.57;;
10481;SDS011;5288;42.334;23.876;2022-10-23T00:45:55;16.60;;;13.33;;
10481;SDS011;5288;42.334;23.876;2022-10-23T00:48:23;19.80;;;12.90;;
10481;SDS011;5288;42.334;23.876;2022-10-23T00:50:52;15.77;;;11.57;;
10481;SDS011;5288;42.334;23.876;2022-10-23T00:53:20;16.23;;;11.20;;
10481;SDS011;5288;42.334;23.876;2022-10-23T00:55:49;14.70;;;12.00;;
10481;SDS011;5288;42.334;23.876;2022-10-23T00:58:19;13.37;;;10.80;;
10481;SDS011;5288;42.334;23.876;2022-10-23T01:00:47;17.33;;;10.67;;
10481;SDS011;5288;42.334;23.876;2022-10-23T01:03:15;16.40;;;11.50;;
10481;SDS011;5288;42.334;23.876;2022-10-23T01:05:46;15.03;;;11.50;;
10481;SDS011;5288;42.334;23.876;2022-10-23T01:08:16;14.50;;;10.67;;
10481;SDS011;5288;42.334;23.876;2022-10-23T01:10:56;12.73;;;10.80;;
10481;SDS011;5288;42.334;23.876;2022-10-23T01:13:31;19.83;;;12.20;;
10481;SDS011;5288;42.334;23.876;2022-10-23T01:16:04;18.07;;;12.20;;
10481;SDS011;5288;42.334;23.876;2022-10-23T01:18:38;22.80;;;13.03;;
10481;SDS011;5288;42.334;23.876;2022-10-23T01:21:12;27.00;;;13.90;;
10481;SDS011;5288;42.334;23.876;2022-10-23T01:26:50;16.30;;;11.67;;
10481;SDS011;5288;42.334;23.876;2022-10-23T01:29:30;16.33;;;10.23;;
10481;SDS011;5288;42.334;23.876;2022-10-23T01:32:06;16.10;;;10.80;;
10481;SDS011;5288;42.334;23.876;2022-10-23T01:34:43;16.43;;;11.87;;
10481;SDS011;5288;42.334;23.876;2022-10-23T01:37:14;10.83;;;9.13;;
10481;SDS011;5288;42.334;23.876;2022-10-23T01:39:46;14.60;;;9.67;;
10481;SDS011;5288;42.334;23.876;2022-10-23T01:42:17;11.13;;;9.40;;
10481;SDS011;5288;42.334;23.876;2022-10-23T01:44:49;16.00;;;10.03;;
10481;SDS011;5288;42.334;23.876;2022-10-23T01:47:21;13.80;;;8.57;;
10481;SDS011;5288;42.334;23.876;2022-10-23T01:49:51;13.77;;;9.73;;
10481;SDS011;5288;42.334;23.876;2022-10-23T01:52:21;15.40;;;10.20;;
10481;SDS011;5288;42.334;23.876;2022-10-23T01:54:48;14.53;;;10.50;;
10481;SDS011;5288;42.334;23.876;2022-10-23T01:57:19;16.33;;;10.33;;
10481;SDS011;5288;42.334;23.876;2022-10-23T01:59:50;15.53;;;10.23;;
10481;SDS011;5288;42.334;23.876;2022-10-23T02:02:20;14.13;;;10.17;;
10481;SDS011;5288;42.334;23.876;2022-10-23T02:04:52;18.47;;;11.13;;
10481;SDS011;5288;42.334;23.876;2022-10-23T02:07:22;11.13;;;9.50;;
10481;SDS011;5288;42.334;23.876;2022-10-23T02:09:49;13.53;;;9.60;;
10481;SDS011;5288;42.334;23.876;2022-10-23T02:12:17;13.03;;;10.13;;
10481;SDS011;5288;42.334;23.876;2022-10-23T02:14:56;12.47;;;10.03;;
10481;SDS011;5288;42.334;23.876;2022-10-23T02:17:29;13.53;;;10.00;;
10481;SDS011;5288;42.334;23.876;2022-10-23T02:20:09;12.47;;;9.13;;
10481;SDS011;5288;42.334;23.876;2022-10-23T02:22:45;10.83;;;9.30;;
10481;SDS011;5288;42.334;23.876;2022-10-23T02:25:20;12.60;;;9.73;;
10481;SDS011;5288;42.334;23.876;2022-10-23T02:27:53;17.83;;;11.50;;
10481;SDS011;5288;42.334;23.876;2022-10-23T02:30:26;13.63;;;10.03;;
10481;SDS011;5288;42.334;23.876;2022-10-23T02:32:54;16.53;;;10.67;;
10481;SDS011;5288;42.334;23.876;2022-10-23T02:35:23;13.17;;;9.83;;
10481;SDS011;5288;42.334;23.876;2022-10-23T02:37:51;11.53;;;9.23;;
10481;SDS011;5288;42.334;23.876;2022-10-23T02:40:18;12.47;;;10.20;;
10481;SDS011;5288;42.334;23.876;2022-10-23T02:42:49;14.37;;;10.17;;
10481;SDS011;5288;42.334;23.876;2022-10-23T02:45:22;11.57;;;9.53;;
10481;SDS011;5288;42.334;23.876;2022-10-23T02:47:57;11.63;;;9.80;;
10481;SDS011;5288;42.334;23.876;2022-10-23T02:50:30;15.97;;;9.80;;
10481;SDS011;5288;42.334;23.876;2022-10-23T02:53:09;14.47;;;10.30;;
10481;SDS011;5288;42.334;23.876;2022-10-23T02:55:49;13.10;;;9.43;;
10481;SDS011;5288;42.334;23.876;2022-10-23T02:58:25;14.73;;;9.77;;
10481;SDS011;5288;42.334;23.876;2022-10-23T03:00:58;11.30;;;9.60;;
10481;SDS011;5288;42.334;23.876;2022-10-23T03:03:31;12.83;;;9.03;;
10481;SDS011;5288;42.334;23.876;2022-10-23T03:06:00;14.13;;;9.50;;
10481;SDS011;5288;42.334;23.876;2022-10-23T03:08:27;13.03;;;9.17;;
10481;SDS011;5288;42.334;23.876;2022-10-23T03:10:55;11.10;;;9.30;;
10481;SDS011;5288;42.334;23.876;2022-10-23T03:13:22;15.37;;;9.20;;
10481;SDS011;5288;42.334;23.876;2022-10-23T03:15:48;12.50;;;8.20;;
10481;SDS011;5288;42.334;23.876;2022-10-23T03:18:17;13.87;;;8.70;;
10481;SDS011;5288;42.334;23.876;2022-10-23T03:20:44;12.33;;;7.73;;
10481;SDS011;5288;42.334;23.876;2022-10-23T03:23:11;15.80;;;8.43;;
10481;SDS011;5288;42.334;23.876;2022-10-23T03:25:39;13.17;;;8.10;;
10481;SDS011;5288;42.334;23.876;2022-10-23T03:28:06;12.97;;;8.53;;
10481;SDS011;5288;42.334;23.876;2022-10-23T03:30:32;10.03;;;7.70;;
10481;SDS011;5288;42.334;23.876;2022-10-23T03:32:59;12.57;;;7.93;;
10481;SDS011;5288;42.334;23.876;2022-10-23T03:35:28;13.27;;;8.57;;
10481;SDS011;5288;42.334;23.876;2022-10-23T03:37:55;12.97;;;9.17;;
10481;SDS011;5288;42.334;23.876;2022-10-23T03:40:22;16.83;;;9.20;;
10481;SDS011;5288;42.334;23.876;2022-10-23T03:42:48;16.00;;;7.93;;
10481;SDS011;5288;42.334;23.876;2022-10-23T03:45:15;12.53;;;8.50;;
10481;SDS011;5288;42.334;23.876;2022-10-23T03:47:42;13.17;;;8.20;;
10481;SDS011;5288;42.334;23.876;2022-10-23T03:50:09;10.43;;;8.50;;
10481;SDS011;5288;42.334;23.876;2022-10-23T03:52:39;11.47;;;8.13;;
10481;SDS011;5288;42.334;23.876;2022-10-23T03:55:06;11.70;;;8.20;;
10481;SDS011;5288;42.334;23.876;2022-10-23T03:57:33;13.07;;;8.23;;
10481;SDS011;5288;42.334;23.876;2022-10-23T04:00:00;13.63;;;7.80;;
10481;SDS011;5288;42.334;23.876;2022-10-23T04:02:28;11.47;;;7.47;;
10481;SDS011;5288;42.334;23.876;2022-10-23T04:04:54;12.87;;;7.77;;
10481;SDS011;5288;42.334;23.876;2022-10-23T04:07:21;11.93;;;8.10;;
10481;SDS011;5288;42.334;23.876;2022-10-23T04:09:50;14.67;;;7.73;;
10481;SDS011;5288;42.334;23.876;2022-10-23T04:12:17;14.13;;;8.50;;
10481;SDS011;5288;42.334;23.876;2022-10-23T04:14:44;14.60;;;7.87;;
10481;SDS011;5288;42.334;23.876;2022-10-23T04:17:11;13.60;;;8.27;;
10481;SDS011;5288;42.334;23.876;2022-10-23T04:19:38;12.67;;;8.00;;
10481;SDS011;5288;42.334;23.876;2022-10-23T04:22:05;12.27;;;7.70;;
10481;SDS011;5288;42.334;23.876;2022-10-23T04:24:32;12.70;;;8.17;;
10481;SDS011;5288;42.334;23.876;2022-10-23T04:27:00;15.63;;;8.80;;
10481;SDS011;5288;42.334;23.876;2022-10-23T04:29:27;12.03;;;8.23;;
10481;SDS011;5288;42.334;23.876;2022-10-23T04:31:56;14.90;;;7.67;;
10481;SDS011;5288;42.334;23.876;2022-10-23T04:34:23;13.57;;;8.07;;
10481;SDS011;5288;42.334;23.876;2022-10-23T04:36:50;15.63;;;7.93;;
10481;SDS011;5288;42.334;23.876;2022-10-23T04:39:17;10.73;;;8.07;;
10481;SDS011;5288;42.334;23.876;2022-10-23T04:41:44;11.37;;;7.83;;
10481;SDS011;5288;42.334;23.876;2022-10-23T04:44:13;11.03;;;8.00;;
10481;SDS011;5288;42.334;23.876;2022-10-23T04:46:40;13.60;;;8.80;;
10481;SDS011;5288;42.334;23.876;2022-10-23T04:49:07;14.60;;;8.47;;
10481;SDS011;5288;42.334;23.876;2022-10-23T04:51:34;15.53;;;8.70;;
10481;SDS011;5288;42.334;23.876;2022-10-23T04:54:00;13.30;;;9.30;;
10481;SDS011;5288;42.334;23.876;2022-10-23T04:56:27;18.43;;;8.90;;
10481;SDS011;5288;42.334;23.876;2022-10-23T04:58:54;12.67;;;8.33;;
10481;SDS011;5288;42.334;23.876;2022-10-23T05:01:23;11.43;;;9.20;;
10481;SDS011;5288;42.334;23.876;2022-10-23T05:03:50;11.73;;;8.87;;
10481;SDS011;5288;42.334;23.876;2022-10-23T05:06:18;11.60;;;8.73;;
10481;SDS011;5288;42.334;23.876;2022-10-23T05:08:45;11.20;;;7.93;;
10481;SDS011;5288;42.334;23.876;2022-10-23T05:11:12;12.07;;;8.47;;
10481;SDS011;5288;42.334;23.876;2022-10-23T05:13:39;11.93;;;7.23;;
10481;SDS011;5288;42.334;23.876;2022-10-23T05:16:06;8.80;;;4.80;;
10481;SDS011;5288;42.334;23.876;2022-10-23T05:18:35;10.60;;;4.67;;
10481;SDS011;5288;42.334;23.876;2022-10-23T05:21:05;9.20;;;4.20;;
10481;SDS011;5288;42.334;23.876;2022-10-23T05:23:38;11.40;;;5.20;;
10481;SDS011;5288;42.334;23.876;2022-10-23T05:26:07;6.87;;;4.43;;
10481;SDS011;5288;42.334;23.876;2022-10-23T05:28:34;7.63;;;4.77;;
10481;SDS011;5288;42.334;23.876;2022-10-23T05:31:04;7.07;;;5.23;;
10481;SDS011;5288;42.334;23.876;2022-10-23T05:33:41;6.77;;;4.57;;
10481;SDS011;5288;42.334;23.876;2022-10-23T05:36:08;8.70;;;4.80;;
10481;SDS011;5288;42.334;23.876;2022-10-23T05:38:36;7.10;;;5.47;;
10481;SDS011;5288;42.334;23.876;2022-10-23T05:41:03;8.80;;;4.50;;
10481;SDS011;5288;42.334;23.876;2022-10-23T05:43:31;6.27;;;4.70;;
10481;SDS011;5288;42.334;23.876;2022-10-23T05:45:58;8.63;;;5.43;;
10481;SDS011;5288;42.334;23.876;2022-10-23T05:48:25;10.03;;;6.00;;
10481;SDS011;5288;42.334;23.876;2022-10-23T05:50:54;13.77;;;6.63;;
10481;SDS011;5288;42.334;23.876;2022-10-23T05:53:21;10.00;;;6.13;;
10481;SDS011;5288;42.334;23.876;2022-10-23T05:55:48;10.80;;;6.07;;
10481;SDS011;5288;42.334;23.876;2022-10-23T05:58:15;7.63;;;4.93;;
10481;SDS011;5288;42.334;23.876;2022-10-23T06:00:42;14.63;;;5.80;;
10481;SDS011;5288;42.334;23.876;2022-10-23T06:03:09;12.83;;;5.60;;
10481;SDS011;5288;42.334;23.876;2022-10-23T06:05:36;10.67;;;5.53;;
10481;SDS011;5288;42.334;23.876;2022-10-23T06:08:05;11.57;;;6.40;;
10481;SDS011;5288;42.334;23.876;2022-10-23T06:10:32;11.10;;;5.73;;
10481;SDS011;5288;42.334;23.876;2022-10-23T06:13:00;10.93;;;5.47;;
10481;SDS011;5288;42.334;23.876;2022-10-23T06:15:27;17.73;;;5.50;;
10481;SDS011;5288;42.334;23.876;2022-10-23T06:17:54;12.23;;;5.20;;
10481;SDS011;5288;42.334;23.876;2022-10-23T06:20:25;9.20;;;5.93;;
10481;SDS011;5288;42.334;23.876;2022-10-23T06:22:52;11.27;;;6.47;;
10481;SDS011;5288;42.334;23.876;2022-10-23T06:25:20;12.80;;;5.40;;
10481;SDS011;5288;42.334;23.876;2022-10-23T06:27:48;14.63;;;6.30;;
10481;SDS011;5288;42.334;23.876;2022-10-23T06:30:16;12.57;;;5.70;;
10481;SDS011;5288;42.334;23.876;2022-10-23T06:32:43;8.93;;;4.73;;
10481;SDS011;5288;42.334;23.876;2022-10-23T06:35:10;12.37;;;6.47;;
10481;SDS011;5288;42.334;23.876;2022-10-23T06:37:37;19.57;;;7.63;;
10481;SDS011;5288;42.334;23.876;2022-10-23T06:40:05;69.20;;;43.30;;
10481;SDS011;5288;42.334;23.876;2022-10-23T06:42:34;18.57;;;12.00;;
10481;SDS011;5288;42.334;23.876;2022-10-23T06:45:01;10.83;;;6.60;;
10481;SDS011;5288;42.334;23.876;2022-10-23T06:47:28;7.47;;;5.03;;
10481;SDS011;5288;42.334;23.876;2022-10-23T06:49:55;15.60;;;6.30;;
10481;SDS011;5288;42.334;23.876;2022-10-23T06:52:22;7.93;;;5.17;;
10481;SDS011;5288;42.334;23.876;2022-10-23T06:54:49;6.17;;;5.00;;
10481;SDS011;5288;42.334;23.876;2022-10-23T06:57:16;12.20;;;5.47;;
10481;SDS011;5288;42.334;23.876;2022-10-23T06:59:45;9.53;;;4.83;;
10481;SDS011;5288;42.334;23.876;2022-10-23T07:02:11;13.40;;;5.27;;
10481;SDS011;5288;42.334;23.876;2022-10-23T07:04:38;10.70;;;5.30;;
10481;SDS011;5288;42.334;23.876;2022-10-23T07:07:05;11.17;;;5.17;;
10481;SDS011;5288;42.334;23.876;2022-10-23T07:09:33;12.17;;;5.93;;
10481;SDS011;5288;42.334;23.876;2022-10-23T07:12:01;10.00;;;5.83;;
10481;SDS011;5288;42.334;23.876;2022-10-23T07:14:27;13.33;;;6.30;;
10481;SDS011;5288;42.334;23.876;2022-10-23T07:16:58;11.70;;;5.67;;
10481;SDS011;5288;42.334;23.876;2022-10-23T07:19:25;9.73;;;4.30;;
10481;SDS011;5288;42.334;23.876;2022-10-23T07:21:52;11.30;;;5.03;;
10481;SDS011;5288;42.334;23.876;2022-10-23T07:24:19;9.53;;;6.43;;
10481;SDS011;5288;42.334;23.876;2022-10-23T07:26:46;5.87;;;4.20;;
10481;SDS011;5288;42.334;23.876;2022-10-23T07:29:13;5.53;;;3.40;;
10481;SDS011;5288;42.334;23.876;2022-10-23T07:31:40;5.93;;;3.63;;
10481;SDS011;5288;42.334;23.876;2022-10-23T07:34:09;12.60;;;4.60;;
10481;SDS011;5288;42.334;23.876;2022-10-23T07:36:36;18.73;;;4.30;;
10481;SDS011;5288;42.334;23.876;2022-10-23T07:39:03;13.23;;;4.03;;
10481;SDS011;5288;42.334;23.876;2022-10-23T07:41:30;6.07;;;4.23;;
10481;SDS011;5288;42.334;23.876;2022-10-23T07:43:57;5.17;;;3.20;;
10481;SDS011;5288;42.334;23.876;2022-10-23T07:46:24;5.83;;;3.33;;
10481;SDS011;5288;42.334;23.876;2022-10-23T07:48:51;6.17;;;3.83;;
10481;SDS011;5288;42.334;23.876;2022-10-23T07:51:20;5.67;;;2.97;;
10481;SDS011;5288;42.334;23.876;2022-10-23T07:53:47;6.47;;;2.90;;
10481;SDS011;5288;42.334;23.876;2022-10-23T07:56:15;6.90;;;3.33;;
10481;SDS011;5288;42.334;23.876;2022-10-23T07:58:43;7.00;;;3.40;;
10481;SDS011;5288;42.334;23.876;2022-10-23T08:01:13;12.17;;;5.10;;
10481;SDS011;5288;42.334;23.876;2022-10-23T08:03:43;5.57;;;3.33;;
10481;SDS011;5288;42.334;23.876;2022-10-23T08:06:10;6.97;;;3.70;;
10481;SDS011;5288;42.334;23.876;2022-10-23T08:08:38;5.00;;;3.40;;
10481;SDS011;5288;42.334;23.876;2022-10-23T08:11:06;8.33;;;2.73;;
10481;SDS011;5288;42.334;23.876;2022-10-23T08:13:33;5.43;;;3.33;;
10481;SDS011;5288;42.334;23.876;2022-10-23T08:16:00;10.53;;;3.13;;
10481;SDS011;5288;42.334;23.876;2022-10-23T08:18:27;4.10;;;2.80;;
10481;SDS011;5288;42.334;23.876;2022-10-23T08:20:58;5.40;;;2.57;;
10481;SDS011;5288;42.334;23.876;2022-10-23T08:23:27;6.00;;;2.87;;
10481;SDS011;5288;42.334;23.876;2022-10-23T08:25:57;5.27;;;3.07;;
10481;SDS011;5288;42.334;23.876;2022-10-23T08:28:25;5.70;;;3.27;;
10481;SDS011;5288;42.334;23.876;2022-10-23T08:30:52;5.47;;;2.70;;
10481;SDS011;5288;42.334;23.876;2022-10-23T08:33:20;5.40;;;2.67;;
10481;SDS011;5288;42.334;23.876;2022-10-23T08:35:47;2.77;;;2.40;;
10481;SDS011;5288;42.334;23.876;2022-10-23T08:38:14;3.27;;;2.23;;
10481;SDS011;5288;42.334;23.876;2022-10-23T08:40:43;1.67;;;1.57;;
10481;SDS011;5288;42.334;23.876;2022-10-23T08:43:13;3.00;;;2.30;;
10481;SDS011;5288;42.334;23.876;2022-10-23T08:45:46;8.00;;;5.67;;
10481;SDS011;5288;42.334;23.876;2022-10-23T08:48:18;3.90;;;2.63;;
10481;SDS011;5288;42.334;23.876;2022-10-23T08:50:56;2.97;;;2.30;;
10481;SDS011;5288;42.334;23.876;2022-10-23T08:53:28;4.10;;;1.97;;
10481;SDS011;5288;42.334;23.876;2022-10-23T08:56:01;3.13;;;2.57;;
10481;SDS011;5288;42.334;23.876;2022-10-23T08:58:35;6.83;;;3.57;;
10481;SDS011;5288;42.334;23.876;2022-10-23T09:01:15;9.33;;;4.53;;
10481;SDS011;5288;42.334;23.876;2022-10-23T09:03:58;7.17;;;3.40;;
10481;SDS011;5288;42.334;23.876;2022-10-23T09:06:29;5.67;;;3.87;;
10481;SDS011;5288;42.334;23.876;2022-10-23T09:09:06;9.57;;;5.13;;
10481;SDS011;5288;42.334;23.876;2022-10-23T09:11:47;4.57;;;3.03;;
10481;SDS011;5288;42.334;23.876;2022-10-23T09:14:27;7.07;;;3.50;;
10481;SDS011;5288;42.334;23.876;2022-10-23T09:17:19;5.23;;;2.90;;
10481;SDS011;5288;42.334;23.876;2022-10-23T09:19:52;4.80;;;4.07;;
10481;SDS011;5288;42.334;23.876;2022-10-23T09:22:24;5.03;;;2.97;;
10481;SDS011;5288;42.334;23.876;2022-10-23T09:24:52;5.80;;;3.30;;
10481;SDS011;5288;42.334;23.876;2022-10-23T09:27:19;8.20;;;3.20;;
10481;SDS011;5288;42.334;23.876;2022-10-23T09:29:48;5.07;;;3.73;;
10481;SDS011;5288;42.334;23.876;2022-10-23T09:32:17;4.50;;;2.53;;
10481;SDS011;5288;42.334;23.876;2022-10-23T09:34:51;5.53;;;3.50;;
10481;SDS011;5288;42.334;23.876;2022-10-23T09:37:20;16.43;;;3.17;;
10481;SDS011;5288;42.334;23.876;2022-10-23T09:39:58;2.73;;;2.33;;
10481;SDS011;5288;42.334;23.876;2022-10-23T09:42:27;4.53;;;2.50;;
10481;SDS011;5288;42.334;23.876;2022-10-23T09:44:56;5.47;;;2.13;;
10481;SDS011;5288;42.334;23.876;2022-10-23T09:47:23;2.50;;;2.30;;
10481;SDS011;5288;42.334;23.876;2022-10-23T09:49:53;4.50;;;2.00;;
10481;SDS011;5288;42.334;23.876;2022-10-23T09:52:21;4.73;;;2.43;;
10481;SDS011;5288;42.334;23.876;2022-10-23T09:54:52;2.93;;;2.10;;
10481;SDS011;5288;42.334;23.876;2022-10-23T09:57:22;8.33;;;2.80;;
10481;SDS011;5288;42.334;23.876;2022-10-23T09:59:54;5.60;;;2.30;;
10481;SDS011;5288;42.334;23.876;2022-10-23T10:02:27;6.50;;;2.53;;
10481;SDS011;5288;42.334;23.876;2022-10-23T10:04:56;4.27;;;2.13;;
10481;SDS011;5288;42.334;23.876;2022-10-23T10:07:24;5.77;;;2.10;;
10481;SDS011;5288;42.334;23.876;2022-10-23T10:09:52;5.97;;;2.40;;
10481;SDS011;5288;42.334;23.876;2022-10-23T10:12:29;30.13;;;4.53;;
10481;SDS011;5288;42.334;23.876;2022-10-23T10:15:10;2.80;;;1.90;;
10481;SDS011;5288;42.334;23.876;2022-10-23T10:17:46;3.13;;;2.20;;
10481;SDS011;5288;42.334;23.876;2022-10-23T10:20:37;2.43;;;2.23;;
10481;SDS011;5288;42.334;23.876;2022-10-23T10:23:26;10.20;;;2.60;;
10481;SDS011;5288;42.334;23.876;2022-10-23T10:26:00;5.33;;;2.13;;
10481;SDS011;5288;42.334;23.876;2022-10-23T10:28:43;5.97;;;4.17;;
10481;SDS011;5288;42.334;23.876;2022-10-23T10:31:21;3.43;;;2.20;;
10481;SDS011;5288;42.334;23.876;2022-10-23T10:33:55;4.70;;;2.90;;
10481;SDS011;5288;42.334;23.876;2022-10-23T10:36:44;5.57;;;4.20;;
10481;SDS011;5288;42.334;23.876;2022-10-23T10:39:18;6.77;;;3.80;;
10481;SDS011;5288;42.334;23.876;2022-10-23T10:41:59;2.13;;;1.93;;
10481;SDS011;5288;42.334;23.876;2022-10-23T10:44:49;3.77;;;2.00;;
10481;SDS011;5288;42.334;23.876;2022-10-23T10:47:27;3.73;;;2.10;;
10481;SDS011;5288;42.334;23.876;2022-10-23T10:50:02;6.33;;;3.27;;
10481;SDS011;5288;42.334;23.876;2022-10-23T10:52:42;4.40;;;2.00;;
10481;SDS011;5288;42.334;23.876;2022-10-23T10:55:17;2.70;;;2.00;;
10481;SDS011;5288;42.334;23.876;2022-10-23T10:57:51;3.67;;;2.20;;
10481;SDS011;5288;42.334;23.876;2022-10-23T11:00:23;15.43;;;4.93;;
10481;SDS011;5288;42.334;23.876;2022-10-23T11:02:52;20.37;;;7.63;;
10481;SDS011;5288;42.334;23.876;2022-10-23T11:05:25;6.57;;;3.58;;
10481;SDS011;5288;42.334;23.876;2022-10-23T11:07:58;4.90;;;2.53;;
10481;SDS011;5288;42.334;23.876;2022-10-23T11:10:29;5.70;;;2.90;;
10481;SDS011;5288;42.334;23.876;2022-10-23T11:12:57;5.60;;;2.72;;
10481;SDS011;5288;42.334;23.876;2022-10-23T11:15:26;6.78;;;3.00;;
10481;SDS011;5288;42.334;23.876;2022-10-23T11:17:59;12.77;;;5.60;;
10481;SDS011;5288;42.334;23.876;2022-10-23T11:26:38;2.30;;;2.00;;
10481;SDS011;5288;42.334;23.876;2022-10-23T11:29:29;4.53;;;2.23;;
10481;SDS011;5288;42.334;23.876;2022-10-23T11:32:16;2.87;;;1.93;;
10481;SDS011;5288;42.334;23.876;2022-10-23T11:37:58;3.20;;;2.30;;
10481;SDS011;5288;42.334;23.876;2022-10-23T11:40:26;3.70;;;1.80;;
10481;SDS011;5288;42.334;23.876;2022-10-23T11:42:54;2.40;;;2.10;;
10481;SDS011;5288;42.334;23.876;2022-10-23T11:45:25;5.20;;;1.90;;
10481;SDS011;5288;42.334;23.876;2022-10-23T11:47:55;4.10;;;2.30;;
10481;SDS011;5288;42.334;23.876;2022-10-23T11:50:32;2.13;;;1.92;;
10481;SDS011;5288;42.334;23.876;2022-10-23T11:53:22;2.63;;;1.93;;
10481;SDS011;5288;42.334;23.876;2022-10-23T11:55:56;3.45;;;2.53;;
10481;SDS011;5288;42.334;23.876;2022-10-23T11:58:25;2.22;;;2.03;;
10481;SDS011;5288;42.334;23.876;2022-10-23T12:01:00;4.18;;;1.85;;
10481;SDS011;5288;42.334;23.876;2022-10-23T12:03:35;3.30;;;2.40;;
10481;SDS011;5288;42.334;23.876;2022-10-23T12:06:15;2.42;;;1.70;;
10481;SDS011;5288;42.334;23.876;2022-10-23T12:08:50;9.30;;;2.22;;
10481;SDS011;5288;42.334;23.876;2022-10-23T12:11:27;2.03;;;1.70;;
10481;SDS011;5288;42.334;23.876;2022-10-23T12:14:12;4.30;;;1.95;;
10481;SDS011;5288;42.334;23.876;2022-10-23T12:16:51;4.45;;;2.28;;
10481;SDS011;5288;42.334;23.876;2022-10-23T12:19:19;2.80;;;1.83;;
10481;SDS011;5288;42.334;23.876;2022-10-23T12:21:50;5.78;;;2.25;;
10481;SDS011;5288;42.334;23.876;2022-10-23T12:24:39;2.25;;;1.80;;
10481;SDS011;5288;42.334;23.876;2022-10-23T12:30:13;1.98;;;1.80;;
10481;SDS011;5288;42.334;23.876;2022-10-23T12:32:56;2.88;;;1.67;;
10481;SDS011;5288;42.334;23.876;2022-10-23T12:35:47;3.65;;;1.92;;
10481;SDS011;5288;42.334;23.876;2022-10-23T12:38:40;3.43;;;2.50;;
10481;SDS011;5288;42.334;23.876;2022-10-23T12:41:10;6.57;;;2.17;;
10481;SDS011;5288;42.334;23.876;2022-10-23T12:43:39;3.80;;;3.50;;
10481;SDS011;5288;42.334;23.876;2022-10-23T12:48:56;2.50;;;1.87;;
10481;SDS011;5288;42.334;23.876;2022-10-23T12:51:24;4.77;;;3.27;;
10481;SDS011;5288;42.334;23.876;2022-10-23T12:53:54;4.20;;;2.97;;
10481;SDS011;5288;42.334;23.876;2022-10-23T12:56:21;3.50;;;2.70;;
10481;SDS011;5288;42.334;23.876;2022-10-23T12:58:49;7.90;;;4.17;;
10481;SDS011;5288;42.334;23.876;2022-10-23T13:01:23;3.67;;;2.77;;
10481;SDS011;5288;42.334;23.876;2022-10-23T13:03:54;6.53;;;3.35;;
10481;SDS011;5288;42.334;23.876;2022-10-23T13:06:24;6.43;;;2.90;;
10481;SDS011;5288;42.334;23.876;2022-10-23T13:08:54;3.80;;;3.45;;
10481;SDS011;5288;42.334;23.876;2022-10-23T13:11:22;2.72;;;2.15;;
10481;SDS011;5288;42.334;23.876;2022-10-23T13:13:51;4.03;;;2.40;;
10481;SDS011;5288;42.334;23.876;2022-10-23T13:16:19;2.80;;;2.17;;
10481;SDS011;5288;42.334;23.876;2022-10-23T13:18:47;2.45;;;2.13;;
10481;SDS011;5288;42.334;23.876;2022-10-23T13:21:16;6.15;;;3.78;;
10481;SDS011;5288;42.334;23.876;2022-10-23T13:23:46;4.82;;;2.20;;
10481;SDS011;5288;42.334;23.876;2022-10-23T13:26:24;3.43;;;2.10;;
10481;SDS011;5288;42.334;23.876;2022-10-23T13:28:56;2.60;;;2.10;;
10481;SDS011;5288;42.334;23.876;2022-10-23T13:31:25;2.33;;;2.10;;
10481;SDS011;5288;42.334;23.876;2022-10-23T13:34:05;2.13;;;1.87;;
10481;SDS011;5288;42.334;23.876;2022-10-23T13:36:50;4.83;;;2.23;;
10481;SDS011;5288;42.334;23.876;2022-10-23T13:39:21;2.63;;;2.20;;
10481;SDS011;5288;42.334;23.876;2022-10-23T13:41:51;7.10;;;2.23;;
10481;SDS011;5288;42.334;23.876;2022-10-23T13:44:19;13.57;;;3.03;;
10481;SDS011;5288;42.334;23.876;2022-10-23T13:46:47;5.00;;;2.40;;
10481;SDS011;5288;42.334;23.876;2022-10-23T13:49:16;2.47;;;2.00;;
10481;SDS011;5288;42.334;23.876;2022-10-23T13:51:43;3.67;;;2.40;;
10481;SDS011;5288;42.334;23.876;2022-10-23T13:54:14;7.17;;;2.77;;
10481;SDS011;5288;42.334;23.876;2022-10-23T13:56:43;3.23;;;2.40;;
10481;SDS011;5288;42.334;23.876;2022-10-23T13:59:11;4.23;;;2.60;;
10481;SDS011;5288;42.334;23.876;2022-10-23T14:01:39;4.53;;;2.77;;
10481;SDS011;5288;42.334;23.876;2022-10-23T14:04:07;2.67;;;2.30;;
10481;SDS011;5288;42.334;23.876;2022-10-23T14:06:35;3.17;;;2.23;;
10481;SDS011;5288;42.334;23.876;2022-10-23T14:09:03;4.47;;;3.40;;
10481;SDS011;5288;42.334;23.876;2022-10-23T14:11:31;7.20;;;4.53;;
10481;SDS011;5288;42.334;23.876;2022-10-23T14:13:59;2.83;;;2.03;;
10481;SDS011;5288;42.334;23.876;2022-10-23T14:16:27;4.40;;;4.00;;
10481;SDS011;5288;42.334;23.876;2022-10-23T14:18:54;7.97;;;7.27;;
10481;SDS011;5288;42.334;23.876;2022-10-23T14:21:21;2.73;;;2.50;;
10481;SDS011;5288;42.334;23.876;2022-10-23T14:23:50;14.17;;;6.10;;
10481;SDS011;5288;42.334;23.876;2022-10-23T14:26:19;3.30;;;2.13;;
10481;SDS011;5288;42.334;23.876;2022-10-23T14:28:51;3.70;;;2.20;;
10481;SDS011;5288;42.334;23.876;2022-10-23T14:31:18;2.73;;;2.00;;
10481;SDS011;5288;42.334;23.876;2022-10-23T14:33:49;2.47;;;2.00;;
10481;SDS011;5288;42.334;23.876;2022-10-23T14:36:18;5.13;;;4.57;;
10481;SDS011;5288;42.334;23.876;2022-10-23T14:38:45;3.37;;;2.70;;
10481;SDS011;5288;42.334;23.876;2022-10-23T14:41:12;3.33;;;2.20;;
10481;SDS011;5288;42.334;23.876;2022-10-23T14:43:40;4.97;;;3.67;;
10481;SDS011;5288;42.334;23.876;2022-10-23T14:46:09;5.83;;;3.50;;
10481;SDS011;5288;42.334;23.876;2022-10-23T14:48:36;5.07;;;2.40;;
10481;SDS011;5288;42.334;23.876;2022-10-23T14:51:06;2.63;;;2.43;;
10481;SDS011;5288;42.334;23.876;2022-10-23T14:53:41;4.10;;;3.03;;
10481;SDS011;5288;42.334;23.876;2022-10-23T14:56:08;10.37;;;3.50;;
10481;SDS011;5288;42.334;23.876;2022-10-23T14:58:35;11.33;;;3.07;;
10481;SDS011;5288;42.334;23.876;2022-10-23T15:01:02;5.23;;;2.43;;
10481;SDS011;5288;42.334;23.876;2022-10-23T15:03:29;5.30;;;4.17;;
10481;SDS011;5288;42.334;23.876;2022-10-23T15:05:56;5.30;;;3.13;;
10481;SDS011;5288;42.334;23.876;2022-10-23T15:08:25;4.80;;;3.90;;
10481;SDS011;5288;42.334;23.876;2022-10-23T15:10:52;14.83;;;13.33;;
10481;SDS011;5288;42.334;23.876;2022-10-23T15:13:19;10.03;;;7.50;;
10481;SDS011;5288;42.334;23.876;2022-10-23T15:15:46;4.37;;;3.33;;